Airfield :
LOGIN :

Register | Disclaimer

   EN    FR    IT 

 










Legend :    VFR   Marginal VFR   IFR   Intensive IFR   Very Intensive IFR
Visi :
Ceiling :
>= 8 km
>= 3000ft
5 to 8 km
1000 to 3000 ft
1500m to 5 km
500 to 1000 ft
800 to 1500m
200 to 500 ft
< 800m
< 200 ft
Symbols :   Thunderstorms  Fog  Heavy snow  Heavy precipitations  Wind > 20 kt
SIGMETs :     Misc.  Thunderstorms  Icing  Turbulence  Mountain Waves  Volcanic Ashes







- Airport Elevation : 1568 ft


ETSB - Büchel AB

CURRENT METAR :
  • 241120Z 23010G20KT 9999 FEW040 BKN260 19/07 Q1002 BLU+BLU TEMPO BLU+

EXPIRED METARs :
  • 241020Z 22013KT 9999 FEW040 SCT100 18/07 Q1003 BLU+BLU TEMPO BLU+
  • 240920Z 20013KT 9999 FEW040 SCT090 17/08 Q1003 BLU+BLU TEMPO BLU+

TAF TAF ETSB
Valid from the 24 at 11:00 until the 24 at 20:00 UTC


241020Z 2411/2420 20012G25KT 9999 NSW BKN100
TEMPO 2414/2419 VRB25G45KT 2000 TSRAGR BKN030CB BY ETGL
No reported NOTAMs for that airfield.



MET'MAP, your aeronautical weather chart ! - Copyright ORBIFLY December 2007 - Disclaimer

ORBIFLY MET'MAP TEAM :

Programming & Development : Alexandra Zaïnal
Concept & Development : Baudouin d'Aumeries
Co-Development & Prog : Marc-Olivier Méhu
Technical & hardware support : Manuel Goepfert

Contact : metmap@orbifly.com




SOURCES & CREDITS :

   NOAA